Time;durP1;ratioP1;P1;durP2;ratioP2;P2;SDS_P1;SDS_P2;PMS_P1;PMS_P2;Temp;Humidity;BMP_temperature;BMP_pressure;BME280_temperature;BME280_humidity;BME280_pressure;Samples;Min_cycle;Max_cycle;Signal;HPM_P1;HPM_P2
2023/01/13 00:01:18;;;;;;;;;;;;;;;-144.99;100.00;52533.69;5063117;28;20009;-68
2023/01/13 00:03:44;;;;;;;;;;;;;;;-144.99;100.00;52562.25;5059347;28;19925;-68
2023/01/13 00:06:12;;;;;;;;;;;;;;;-144.99;100.00;52484.78;5063417;28;19969;-68
2023/01/13 00:08:39;;;;;;;;;;;;;;;-144.99;100.00;52541.84;5075198;28;19936;-68
2023/01/13 00:11:06;;;;;;;;;;;;;;;-144.99;100.00;52558.16;5063074;28;19971;-68
2023/01/13 00:13:34;;;;;;;;;;;;;;;-144.99;100.00;52533.69;5075958;28;20202;-68
2023/01/13 00:16:02;;;;;;;;;;;;;;;-144.99;100.00;52527.59;5085171;28;21739;-69
2023/01/13 00:18:28;;;;;;;;;;;;;;;-144.99;100.00;52558.16;5058544;28;19932;-63
2023/01/13 00:20:58;;;;;;;;;;;;;;;-144.99;100.00;52507.19;5055720;28;19928;-66
2023/01/13 00:23:26;;;;;;;;;;;;;;;-144.99;100.00;52576.50;5060298;28;20339;-67
2023/01/13 00:25:54;;;;;;;;;;;;;;;-144.99;100.00;52517.41;5063064;28;20335;-67
2023/01/13 00:28:21;;;;;;;;;;;;;;;-144.99;100.00;52543.91;5063857;28;20039;-65
2023/01/13 00:30:49;;;;;;;;;;;;;;;-144.99;100.00;52558.16;5061965;28;20579;-66
2023/01/13 00:33:15;;;;;;;;;;;;;;;-144.99;100.00;52521.47;5062375;28;20031;-65
2023/01/13 00:35:42;;;;;;;;;;;;;;;-144.99;100.00;52513.31;5063386;28;21363;-65
2023/01/13 00:38:08;;;;;;;;;;;;;;;-144.99;100.00;52517.41;5063993;28;19957;-65
2023/01/13 00:40:35;;;;;;;;;;;;;;;-144.99;100.00;52537.78;5059193;28;19979;-65
2023/01/13 00:45:45;;;;;;;;;;;;;;;-144.99;100.00;52558.16;5067288;28;19940;-64
2023/01/13 00:48:13;;;;;;;;;;;;;;;-144.99;100.00;52521.47;5063670;28;19960;-64
2023/01/13 00:50:39;;;;;;;;;;;;;;;-144.99;100.00;52558.16;5061045;28;20011;-64
2023/01/13 00:53:06;;;;;;;;;;;;;;;-144.99;100.00;52554.09;5062362;28;19979;-64
2023/01/13 00:55:32;;;;;;;;;;;;;;;-144.99;100.00;52541.84;5071991;28;19939;-64
2023/01/13 00:58:02;;;;;;;;;;;;;;;-144.99;100.00;52525.56;5061547;28;20021;-65
2023/01/13 01:00:28;;;;;;;;;;;;;;;-144.99;100.00;52523.50;5062157;28;19979;-64
2023/01/13 01:02:55;;;;;;;;;;;;;;;-144.99;100.00;52545.94;5060773;28;20798;-63
2023/01/13 01:05:23;;;;;;;;;;;;;;;-144.99;100.00;52547.97;5062851;28;20332;-63
2023/01/13 01:07:49;;;;;;;;;;;;;;;-144.99;100.00;52537.78;5062103;28;20023;-63
2023/01/13 01:10:16;;;;;;;;;;;;;;;-144.99;100.00;52537.78;5062151;28;19979;-64
2023/01/13 01:12:43;;;;;;;;;;;;;;;-144.99;100.00;52517.41;5061459;28;20482;-63
2023/01/13 01:15:10;;;;;;;;;;;;;;;-144.99;100.00;52562.25;5062689;28;20361;-64
2023/01/13 01:17:37;;;;;;;;;;;;;;;-144.99;100.00;52519.44;5060415;28;19972;-64
2023/01/13 01:20:04;;;;;;;;;;;;;;;-144.99;100.00;52550.00;5063421;28;19970;-64
2023/01/13 01:22:32;;;;;;;;;;;;;;;-144.99;100.00;52554.09;5060989;28;19959;-64
2023/01/13 01:24:58;;;;;;;;;;;;;;;-144.99;100.00;52574.47;5058515;28;20353;-64
2023/01/13 01:27:25;;;;;;;;;;;;;;;-144.99;100.00;52545.94;5059967;28;19943;-64
2023/01/13 01:29:51;;;;;;;;;;;;;;;-144.99;100.00;52531.66;5060746;28;20020;-64
2023/01/13 01:32:18;;;;;;;;;;;;;;;-144.99;100.00;52541.84;5061228;28;19998;-64
2023/01/13 01:34:44;;;;;;;;;;;;;;;-144.99;100.00;52545.94;5076406;28;19928;-63
2023/01/13 01:37:11;;;;;;;;;;;;;;;-144.99;100.00;52545.94;5073181;28;19951;-64
2023/01/13 01:39:38;;;;;;;;;;;;;;;-144.99;100.00;52562.25;5061490;28;19936;-64
2023/01/13 01:44:52;;;;;;;;;;;;;;;-144.99;100.00;52513.31;5060452;28;21336;-62
2023/01/13 01:47:18;;;;;;;;;;;;;;;-144.99;100.00;52525.56;5060984;28;19963;-63
2023/01/13 01:49:46;;;;;;;;;;;;;;;-144.99;100.00;52523.50;5060700;28;20473;-63
2023/01/13 01:52:14;;;;;;;;;;;;;;;-144.99;100.00;52533.69;5061373;28;19928;-62
2023/01/13 01:54:47;;;;;;;;;;;;;;;-144.99;100.00;52550.00;5060429;28;20016;-63
2023/01/13 01:57:18;;;;;;;;;;;;;;;-144.99;100.00;52570.38;5058481;28;20010;-62
2023/01/13 01:59:44;;;;;;;;;;;;;;;-144.99;100.00;52525.56;5058309;28;19982;-63
2023/01/13 02:02:11;;;;;;;;;;;;;;;-144.99;100.00;52533.69;5058932;28;20029;-62
2023/01/13 02:04:39;;;;;;;;;;;;;;;-144.99;100.00;52554.09;5061493;28;20580;-62
2023/01/13 02:07:09;;;;;;;;;;;;;;;-144.99;100.00;52554.09;5061765;28;20483;-62
2023/01/13 02:09:36;;;;;;;;;;;;;;;-144.99;100.00;52531.66;5061952;28;19928;-62
2023/01/13 02:14:48;;;;;;;;;;;;;;;-144.99;100.00;52529.63;5060366;28;19944;-64
2023/01/13 02:17:26;;;;;;;;;;;;;;;-144.99;100.00;52564.28;5080576;28;19924;-63
2023/01/13 02:20:06;;;;;;;;;;;;;;;-144.99;100.00;52574.47;5065053;28;20112;-67
2023/01/13 02:22:43;;;;;;;;;;;;;;;-144.99;100.00;52550.00;5059324;28;20366;-66
2023/01/13 02:25:24;;;;;;;;;;;;;;;-144.99;99.21;52525.56;5058335;28;20089;-67
2023/01/13 02:27:58;;;;;;;;;;;;;;;-144.99;99.90;52570.38;5060003;28;20571;-68
2023/01/13 02:33:29;;;;;;;;;;;;;;;-144.99;98.91;52566.31;5054032;28;20379;-66
2023/01/13 02:35:59;;;;;;;;;;;;;;;-144.99;98.84;52586.69;5060031;28;19971;-66
2023/01/13 02:38:28;;;;;;;;;;;;;;;-144.99;98.10;52533.69;5066532;28;19972;-66
2023/01/13 02:40:58;;;;;;;;;;;;;;;-144.99;97.16;52554.09;5065408;28;19968;-65
2023/01/13 02:46:16;;;;;;;;;;;;;;;-144.99;97.84;52550.00;5061903;28;19943;-65
2023/01/13 02:48:45;;;;;;;;;;;;;;;-144.99;96.85;52590.78;5058188;28;19932;-69
2023/01/13 02:51:14;;;;;;;;;;;;;;;-144.99;96.30;52639.69;5061486;28;19964;-69
2023/01/13 02:53:43;;;;;;;;;;;;;;;-144.99;97.76;52560.19;5062249;28;19940;-69
2023/01/13 02:56:09;;;;;;;;;;;;;;;-144.99;97.57;52541.84;5058632;28;19982;-66
2023/01/13 02:58:39;;;;;;;;;;;;;;;-144.99;97.62;52566.31;5059168;28;20362;-68
2023/01/13 03:01:05;;;;;;;;;;;;;;;-144.99;97.08;52550.00;5060824;28;19936;-67
2023/01/13 03:03:33;;;;;;;;;;;;;;;-144.99;96.96;52592.81;5061036;28;19959;-69
2023/01/13 03:06:02;;;;;;;;;;;;;;;-144.99;97.10;52537.78;5060596;28;20033;-70
2023/01/13 03:08:41;;;;;;;;;;;;;;;-144.99;95.74;52545.94;5058167;28;19994;-69
2023/01/13 03:11:09;;;;;;;;;;;;;;;-144.99;95.77;52570.38;5062286;28;20341;-70
2023/01/13 03:13:45;;;;;;;;;;;;;;;-144.99;95.71;52562.25;5062399;28;20382;-69
2023/01/13 03:16:16;;;;;;;;;;;;;;;-144.99;94.70;52582.63;5058961;28;19993;-71
2023/01/13 03:18:46;;;;;;;;;;;;;;;-144.99;93.50;52550.00;5061017;28;20021;-70
2023/01/13 03:21:19;;;;;;;;;;;;;;;-144.99;92.61;52554.09;5064147;28;20031;-65
2023/01/13 03:23:49;;;;;;;;;;;;;;;-144.99;92.21;52586.69;5064354;28;20434;-64
2023/01/13 03:26:17;;;;;;;;;;;;;;;-144.99;91.56;52541.84;5062426;28;19972;-65
2023/01/13 03:28:48;;;;;;;;;;;;;;;-144.99;90.23;52545.94;5070711;28;19936;-66
2023/01/13 03:31:15;;;;;;;;;;;;;;;-144.99;89.87;52574.47;5071822;28;19974;-65
2023/01/13 03:33:44;;;;;;;;;;;;;;;-144.99;89.55;52529.63;5066058;28;19966;-66
2023/01/13 03:36:13;;;;;;;;;;;;;;;-144.99;87.94;52578.53;5064434;28;19982;-63
2023/01/13 03:38:42;;;;;;;;;;;;;;;-144.99;87.44;52554.09;5061349;28;19960;-63
2023/01/13 03:41:10;;;;;;;;;;;;;;;-144.99;86.82;52533.69;5060569;28;20328;-63
2023/01/13 03:46:28;;;;;;;;;;;;;;;-144.99;90.25;52570.38;5059860;28;19969;-64
2023/01/13 03:48:56;;;;;;;;;;;;;;;-144.99;90.75;52570.38;5065646;28;20013;-63
2023/01/13 03:51:26;;;;;;;;;;;;;;;-144.99;90.73;52556.13;5063370;28;19929;-63
2023/01/13 03:53:55;;;;;;;;;;;;;;;-144.99;89.98;52539.81;5061914;28;19924;-63
2023/01/13 03:56:25;;;;;;;;;;;;;;;-144.99;89.13;52545.94;5063301;28;20262;-69
2023/01/13 03:58:53;;;;;;;;;;;;;;;-144.99;89.82;52543.91;5061631;28;20317;-69
2023/01/13 04:01:21;;;;;;;;;;;;;;;-144.99;89.78;52590.78;5062967;28;20043;-71
2023/01/13 04:03:50;;;;;;;;;;;;;;;-144.99;90.04;52566.31;5064101;28;19935;-71
2023/01/13 04:06:21;;;;;;;;;;;;;;;-144.99;89.58;52586.69;5063874;28;19982;-70
2023/01/13 04:08:51;;;;;;;;;;;;;;;-144.99;90.09;52584.66;5062257;28;19968;-70
2023/01/13 04:11:19;;;;;;;;;;;;;;;-144.99;89.69;52580.59;5063403;28;20007;-70
2023/01/13 04:13:47;;;;;;;;;;;;;;;-144.99;90.00;52562.25;5062929;28;19960;-70
2023/01/13 04:16:14;;;;;;;;;;;;;;;-144.99;88.69;52543.91;5062187;28;19999;-64
2023/01/13 04:18:41;;;;;;;;;;;;;;;-144.99;88.71;52576.50;5060625;28;20009;-65
2023/01/13 04:21:07;;;;;;;;;;;;;;;-144.99;89.51;52537.78;5063531;28;20044;-65
2023/01/13 04:23:34;;;;;;;;;;;;;;;-144.99;89.34;52566.31;5060773;28;19936;-65
2023/01/13 04:26:02;;;;;;;;;;;;;;;-144.99;88.92;52566.31;5067566;28;19977;-65
2023/01/13 04:28:28;;;;;;;;;;;;;;;-144.99;88.85;52596.88;5060541;28;20009;-65
2023/01/13 04:30:55;;;;;;;;;;;;;;;-144.99;89.35;52588.75;5062320;28;20303;-65
2023/01/13 04:33:22;;;;;;;;;;;;;;;-144.99;89.47;52574.47;5063251;28;20040;-64
2023/01/13 04:35:48;;;;;;;;;;;;;;;-144.99;89.40;52574.47;5064367;28;19935;-64
2023/01/13 04:38:16;;;;;;;;;;;;;;;-144.99;89.55;52598.94;5062892;28;19997;-64
2023/01/13 04:40:42;;;;;;;;;;;;;;;-144.99;90.11;52574.47;5061643;28;19924;-63
2023/01/13 04:43:10;;;;;;;;;;;;;;;-144.99;90.00;52594.84;5063788;28;19978;-64
2023/01/13 04:45:37;;;;;;;;;;;;;;;-144.99;90.54;52558.16;5061823;28;20430;-63
2023/01/13 04:48:04;;;;;;;;;;;;;;;-144.99;91.06;52556.13;5064118;28;19970;-64
2023/01/13 04:50:30;;;;;;;;;;;;;;;-144.99;91.47;52554.09;5060581;28;20983;-63
2023/01/13 04:52:57;;;;;;;;;;;;;;;-144.99;91.17;52582.63;5059968;28;20009;-62
2023/01/13 04:55:24;;;;;;;;;;;;;;;-144.99;92.09;52537.78;5062601;28;20029;-64
2023/01/13 04:57:51;;;;;;;;;;;;;;;-144.99;92.28;52590.78;5057350;28;20007;-62
2023/01/13 05:00:20;;;;;;;;;;;;;;;-144.99;92.02;52603.00;5063277;28;19971;-62
2023/01/13 05:02:47;;;;;;;;;;;;;;;-144.99;92.23;52574.47;5061748;28;19960;-62
2023/01/13 05:05:13;;;;;;;;;;;;;;;-144.99;92.23;52558.16;5074284;22;20343;-68
2023/01/13 05:07:40;;;;;;;;;;;;;;;-144.99;92.50;52623.38;5063891;28;19964;-67
2023/01/13 05:10:06;;;;;;;;;;;;;;;-144.99;93.14;52582.63;5064116;28;20020;-67
2023/01/13 05:18:02;;;;;;;;;;;;;;;-144.99;92.38;52562.25;5066879;28;19932;-70
2023/01/13 05:20:29;;;;;;;;;;;;;;;-144.99;92.45;52550.00;5065722;28;19924;-71
2023/01/13 05:25:42;;;;;;;;;;;;;;;-144.99;91.09;52566.31;5065323;28;19943;-71
2023/01/13 05:28:09;;;;;;;;;;;;;;;-144.99;90.14;52570.38;5066372;28;20480;-71
2023/01/13 05:30:37;;;;;;;;;;;;;;;-144.99;89.58;52578.53;5063684;28;19982;-70
2023/01/13 05:33:05;;;;;;;;;;;;;;;-144.99;90.21;52603.00;5062085;28;19939;-71
2023/01/13 05:35:31;;;;;;;;;;;;;;;-144.99;89.80;52570.38;5068188;28;20054;-72
2023/01/13 05:37:58;;;;;;;;;;;;;;;-144.99;89.54;52603.00;5071161;28;19932;-73
2023/01/13 05:43:23;;;;;;;;;;;;;;;-144.99;89.53;52611.16;5064866;28;19947;-72
2023/01/13 05:45:51;;;;;;;;;;;;;;;-144.99;89.31;52566.31;5066102;28;19982;-72
2023/01/13 05:48:20;;;;;;;;;;;;;;;-144.99;89.31;52623.38;5068348;28;19924;-72
2023/01/13 05:50:48;;;;;;;;;;;;;;;-144.99;89.13;52529.63;5066071;28;19932;-72
2023/01/13 05:53:14;;;;;;;;;;;;;;;-144.99;89.51;52603.00;5064978;28;19986;-72
2023/01/13 05:55:41;;;;;;;;;;;;;;;-144.99;88.59;52594.84;5065374;28;20237;-72
2023/01/13 05:58:08;;;;;;;;;;;;;;;-144.99;88.50;52586.69;5063385;28;19959;-71
2023/01/13 06:00:34;;;;;;;;;;;;;;;-144.99;88.58;52584.66;5063947;28;19986;-66
2023/01/13 06:03:01;;;;;;;;;;;;;;;-144.99;88.09;52562.25;5060900;28;20336;-76
2023/01/13 06:05:29;;;;;;;;;;;;;;;-144.99;88.05;52598.94;5067892;28;19924;-74
2023/01/13 06:07:56;;;;;;;;;;;;;;;-144.99;87.88;52603.00;5065288;28;20419;-72
2023/01/13 06:10:23;;;;;;;;;;;;;;;-144.99;87.71;52574.47;5068667;28;19925;-71
2023/01/13 06:12:49;;;;;;;;;;;;;;;-144.99;87.69;52566.31;5063946;28;19928;-76
2023/01/13 06:15:16;;;;;;;;;;;;;;;-144.99;87.18;52582.63;5067940;28;19928;-72
2023/01/13 06:17:43;;;;;;;;;;;;;;;-144.99;87.33;52582.63;5068362;28;20061;-74
2023/01/13 06:20:26;;;;;;;;;;;;;;;-144.99;86.69;52590.78;4967975;28;10000225;-75
2023/01/13 06:22:54;;;;;;;;;;;;;;;-144.99;86.95;52588.75;5067707;28;19978;-75
2023/01/13 06:25:29;;;;;;;;;;;;;;;-144.99;86.67;52578.53;5063497;28;20477;-74
2023/01/13 06:27:56;;;;;;;;;;;;;;;-144.99;86.24;52570.38;5063447;28;19929;-75
2023/01/13 06:30:23;;;;;;;;;;;;;;;-144.99;85.91;52562.25;5068499;28;19982;-74
2023/01/13 06:32:52;;;;;;;;;;;;;;;-144.99;85.68;52582.63;5063659;28;19932;-74
2023/01/13 06:35:20;;;;;;;;;;;;;;;-144.99;84.89;52533.69;5068052;28;20019;-75
2023/01/13 06:37:49;;;;;;;;;;;;;;;-144.99;84.77;52592.81;5064555;28;19936;-74
2023/01/13 06:40:17;;;;;;;;;;;;;;;-144.99;84.63;52562.25;5063257;28;19933;-75
2023/01/13 06:45:29;;;;;;;;;;;;;;;-144.99;84.64;52619.31;5064261;28;19940;-75
2023/01/13 06:47:57;;;;;;;;;;;;;;;-144.99;84.25;52566.31;5066965;28;19982;-74
2023/01/13 06:50:24;;;;;;;;;;;;;;;-144.99;83.78;52590.78;5057645;28;19928;-74
2023/01/13 06:52:50;;;;;;;;;;;;;;;-144.99;83.80;52590.78;5070095;28;19928;-74
2023/01/13 06:55:18;;;;;;;;;;;;;;;-144.99;83.92;52594.84;5071182;28;19932;-74
2023/01/13 06:57:49;;;;;;;;;;;;;;;-144.99;83.48;52592.81;5071106;28;20018;-76
2023/01/13 07:00:16;;;;;;;;;;;;;;;-144.99;83.41;52570.38;5071288;28;19932;-74
2023/01/13 07:02:43;;;;;;;;;;;;;;;-144.99;83.59;52588.75;5067911;28;19932;-75
2023/01/13 07:05:09;;;;;;;;;;;;;;;-144.99;83.34;52594.84;5063079;28;20013;-75
2023/01/13 07:07:36;;;;;;;;;;;;;;;-144.99;83.00;52586.69;5071742;28;19940;-75
2023/01/13 07:10:02;;;;;;;;;;;;;;;-144.99;83.36;52603.00;5071560;28;20053;-74
2023/01/13 07:15:16;;;;;;;;;;;;;;;-144.99;82.83;52541.84;5091878;28;19928;-74
2023/01/13 07:15:19;;;;;;;;;;;;;;;-144.99;83.24;52592.81;5082422;28;19933;-74
2023/01/13 07:17:45;;;;;;;;;;;;;;;-144.99;82.63;52545.94;5069651;28;20300;-75
2023/01/13 07:20:12;;;;;;;;;;;;;;;-144.99;82.63;52605.03;5058051;28;19951;-75
2023/01/13 07:22:39;;;;;;;;;;;;;;;-144.99;83.14;52566.31;5071357;28;19972;-73
2023/01/13 07:25:06;;;;;;;;;;;;;;;-144.99;82.43;52594.84;5071090;28;19933;-74
2023/01/13 07:27:34;;;;;;;;;;;;;;;-144.99;82.25;52558.16;5062444;28;20041;-75
2023/01/13 07:30:00;;;;;;;;;;;;;;;-144.99;82.13;52578.53;5071177;28;19936;-73
2023/01/13 07:32:27;;;;;;;;;;;;;;;-144.99;81.74;52554.09;5072331;28;19924;-74
2023/01/13 07:34:53;;;;;;;;;;;;;;;-144.99;81.31;52613.19;5071405;28;19928;-74
2023/01/13 07:37:20;;;;;;;;;;;;;;;-144.99;81.26;52590.78;5071061;28;19986;-75
2023/01/13 07:39:46;;;;;;;;;;;;;;;-144.99;80.83;52623.38;5069479;28;19928;-75
2023/01/13 07:44:58;;;;;;;;;;;;;;;-144.99;80.80;52594.84;5070554;28;19931;-74
2023/01/13 07:47:25;;;;;;;;;;;;;;;-144.99;81.12;52617.28;5071051;28;19966;-74
2023/01/13 07:49:51;;;;;;;;;;;;;;;-144.99;80.85;52558.16;5072576;28;19932;-73
2023/01/13 07:52:18;;;;;;;;;;;;;;;-144.99;80.78;52566.31;5089269;28;19921;-76
2023/01/13 07:54:44;;;;;;;;;;;;;;;-144.99;81.01;52578.53;5086753;28;20266;-75
2023/01/13 07:57:11;;;;;;;;;;;;;;;-144.99;80.95;52588.75;5072339;28;19978;-74
2023/01/13 07:59:38;;;;;;;;;;;;;;;-144.99;80.79;52619.31;4718061;28;10000005;-74
2023/01/13 08:02:06;;;;;;;;;;;;;;;-144.99;80.86;52582.63;5066225;28;20114;-75
2023/01/13 08:04:33;;;;;;;;;;;;;;;-144.99;80.59;52570.38;5068688;28;19924;-74
2023/01/13 08:07:00;;;;;;;;;;;;;;;-144.99;80.72;52554.09;5058824;28;19975;-74
2023/01/13 08:09:26;;;;;;;;;;;;;;;-144.99;80.49;52578.53;5068006;28;19932;-74
2023/01/13 08:13:16;;;;;;;;;;;;;;;-144.99;80.13;52576.50;5069309;28;19990;-74
2023/01/13 08:14:41;;;;;;;;;;;;;;;-144.99;80.03;52556.13;5064509;28;20023;-74
2023/01/13 08:17:09;;;;;;;;;;;;;;;-144.99;79.48;52582.63;5069903;28;19967;-74
2023/01/13 08:19:36;;;;;;;;;;;;;;;-144.99;80.09;52598.94;5069292;28;19936;-73
2023/01/13 08:22:03;;;;;;;;;;;;;;;-144.99;79.65;52566.31;5056217;28;19925;-74
2023/01/13 08:24:29;;;;;;;;;;;;;;;-144.99;79.68;52586.69;5066775;28;20268;-74
2023/01/13 08:26:56;;;;;;;;;;;;;;;-144.99;80.70;52584.66;5069092;28;20025;-74
2023/01/13 08:29:23;;;;;;;;;;;;;;;-144.99;79.92;52566.31;5069677;28;19928;-75
2023/01/13 08:31:49;;;;;;;;;;;;;;;-144.99;79.61;52598.94;5086745;28;19920;-75
2023/01/13 08:34:18;;;;;;;;;;;;;;;-144.99;79.59;52558.16;5087184;28;19963;-74
2023/01/13 08:36:44;;;;;;;;;;;;;;;-144.99;79.12;52562.25;5068448;28;20277;-73
2023/01/13 08:39:11;;;;;;;;;;;;;;;-144.99;78.77;52574.47;5068060;28;19974;-74
2023/01/13 08:41:55;;;;;;;;;;;;;;;-144.99;78.35;52558.16;5065752;28;19932;-73
2023/01/13 08:44:22;;;;;;;;;;;;;;;-144.99;78.20;52562.25;5069883;28;20335;-74
2023/01/13 08:46:49;;;;;;;;;;;;;;;-144.99;78.33;52588.75;5069723;28;20346;-74
2023/01/13 08:49:15;;;;;;;;;;;;;;;-144.99;77.97;52582.63;5068393;28;19936;-74
2023/01/13 08:51:44;;;;;;;;;;;;;;;-144.99;77.68;52594.84;5068097;28;19928;-75
2023/01/13 08:54:10;;;;;;;;;;;;;;;-144.99;77.56;52568.34;5055801;28;19929;-74
2023/01/13 08:56:37;;;;;;;;;;;;;;;-144.99;77.10;52578.53;5067234;28;19929;-74
2023/01/13 08:59:04;;;;;;;;;;;;;;;-144.99;78.06;52574.47;5066546;28;19982;-74
2023/01/13 09:01:32;;;;;;;;;;;;;;;-144.99;78.82;52560.19;5065381;28;20403;-74
2023/01/13 09:03:59;;;;;;;;;;;;;;;-144.99;78.63;52586.69;5068983;28;19947;-74
2023/01/13 09:06:25;;;;;;;;;;;;;;;-144.99;78.23;52603.00;5062457;28;20008;-73
2023/01/13 09:08:54;;;;;;;;;;;;;;;-144.99;78.31;52578.53;5058269;28;19975;-74
2023/01/13 09:14:09;;;;;;;;;;;;;;;-144.99;78.84;52578.53;5083345;28;19999;-74
2023/01/13 09:16:36;;;;;;;;;;;;;;;-144.99;78.98;52562.25;5068434;28;20442;-73
2023/01/13 09:19:02;;;;;;;;;;;;;;;-144.99;80.06;52588.75;5068384;28;19989;-74
2023/01/13 09:21:29;;;;;;;;;;;;;;;-144.99;80.15;52623.38;5063123;28;20179;-75
2023/01/13 09:23:57;;;;;;;;;;;;;;;-144.99;80.28;52556.13;5068383;28;19928;-73
2023/01/13 09:26:24;;;;;;;;;;;;;;;-144.99;80.19;52603.00;5069373;28;19947;-74
2023/01/13 09:28:50;;;;;;;;;;;;;;;-144.99;79.92;52590.78;5070097;28;19925;-74
2023/01/13 09:31:17;;;;;;;;;;;;;;;-144.99;79.78;52564.28;5067735;28;19928;-75
2023/01/13 09:36:27;;;;;;;;;;;;;;;-144.99;78.57;52615.25;5062732;28;19935;-74
2023/01/13 09:38:54;;;;;;;;;;;;;;;-144.99;78.42;52603.00;5069529;28;19928;-75
2023/01/13 09:44:10;;;;;;;;;;;;;;;-144.99;78.10;52564.28;5067458;28;20074;-75
2023/01/13 09:46:46;;;;;;;;;;;;;;;-144.99;77.94;52590.78;5075744;28;19960;-75
2023/01/13 09:49:19;;;;;;;;;;;;;;;-144.99;77.54;52574.47;5069739;28;19928;-74
2023/01/13 09:51:51;;;;;;;;;;;;;;;-144.99;77.62;52562.25;5087146;28;19955;-75
2023/01/13 09:54:22;;;;;;;;;;;;;;;-144.99;77.28;52609.13;5078041;28;19929;-74
2023/01/13 09:56:51;;;;;;;;;;;;;;;-144.99;77.23;52558.16;5069690;28;20376;-75
2023/01/13 09:59:18;;;;;;;;;;;;;;;-144.99;77.09;52596.88;5060493;28;19931;-75
2023/01/13 10:01:51;;;;;;;;;;;;;;;-144.99;76.83;52552.03;5068937;28;19962;-75
2023/01/13 10:04:18;;;;;;;;;;;;;;;-144.99;76.89;52594.84;5069132;28;20043;-74
2023/01/13 10:06:47;;;;;;;;;;;;;;;-144.99;76.45;52578.53;5070330;28;19924;-75
2023/01/13 10:09:15;;;;;;;;;;;;;;;-144.99;76.06;52568.34;5071815;28;19994;-74
2023/01/13 10:14:34;;;;;;;;;;;;;;;-144.99;75.60;52586.69;5069769;28;20236;-73
2023/01/13 10:17:05;;;;;;;;;;;;;;;-144.99;75.73;52590.78;5070811;28;19924;-74
2023/01/13 10:19:33;;;;;;;;;;;;;;;-144.99;74.97;52543.91;5070206;28;19925;-74
2023/01/13 10:22:14;;;;;;;;;;;;;;;-144.99;75.42;52558.16;5068813;28;19934;-74
2023/01/13 10:25:03;;;;;;;;;;;;;;;-144.99;75.45;52558.16;5060206;28;19928;-73
2023/01/13 10:27:33;;;;;;;;;;;;;;;-144.99;76.79;52603.00;5068437;28;19924;-74
2023/01/13 10:30:10;;;;;;;;;;;;;;;-144.99;77.56;52570.38;5079448;28;19956;-76
2023/01/13 10:32:37;;;;;;;;;;;;;;;-144.99;77.73;52586.69;5092925;28;20197;-75
2023/01/13 10:35:03;;;;;;;;;;;;;;;-144.99;77.44;52594.84;5069670;28;20377;-75
2023/01/13 10:37:32;;;;;;;;;;;;;;;-144.99;77.27;52574.47;5066377;28;22168;-75
2023/01/13 10:40:01;;;;;;;;;;;;;;;-144.99;77.42;52590.78;5058332;28;19928;-73
2023/01/13 10:42:27;;;;;;;;;;;;;;;-144.99;77.76;52603.00;5052938;28;19925;-77
2023/01/13 10:44:55;;;;;;;;;;;;;;;-144.99;77.23;52584.66;5061121;28;19924;-75
2023/01/13 10:47:25;;;;;;;;;;;;;;;-144.99;77.51;52554.09;5068936;28;19932;-75
2023/01/13 10:50:04;;;;;;;;;;;;;;;-144.99;77.28;52594.84;5069988;28;20019;-74
2023/01/13 10:52:31;;;;;;;;;;;;;;;-144.99;76.34;52574.47;5068794;28;19929;-75
2023/01/13 10:54:58;;;;;;;;;;;;;;;-144.99;76.56;52541.84;5064035;28;19924;-76
2023/01/13 10:57:25;;;;;;;;;;;;;;;-144.99;75.92;52519.44;5063184;28;20267;-74
2023/01/13 10:59:52;;;;;;;;;;;;;;;-144.99;76.09;52501.09;5064230;28;19924;-75
2023/01/13 11:02:22;;;;;;;;;;;;;;;-144.99;77.81;52547.97;5068569;28;19935;-74
2023/01/13 11:05:01;;;;;;;;;;;;;;;-144.99;78.71;52594.84;5068058;28;19929;-75
2023/01/13 11:07:29;;;;;;;;;;;;;;;-144.99;78.79;52554.09;5055026;28;19929;-74
2023/01/13 11:10:20;;;;;;;;;;;;;;;-144.99;78.42;52592.81;5083786;28;19919;-74
2023/01/13 11:12:50;;;;;;;;;;;;;;;-144.99;78.96;52550.00;5078713;28;19954;-74
2023/01/13 11:15:23;;;;;;;;;;;;;;;-144.99;78.82;52541.84;5066858;28;19928;-74
2023/01/13 11:17:59;;;;;;;;;;;;;;;-144.99;79.33;52566.31;5068813;28;19929;-74
2023/01/13 11:20:32;;;;;;;;;;;;;;;-144.99;79.48;52582.63;5056806;28;20038;-74
2023/01/13 11:23:01;;;;;;;;;;;;;;;-144.99;79.34;52547.97;5058870;28;19936;-73
2023/01/13 11:25:40;;;;;;;;;;;;;;;-144.99;80.07;52600.97;5072005;28;19928;-74
2023/01/13 11:28:15;;;;;;;;;;;;;;;-144.99;80.41;52556.13;5072981;28;20228;-75
2023/01/13 11:30:43;;;;;;;;;;;;;;;-144.99;79.77;52566.31;5073287;28;19929;-74
2023/01/13 11:33:17;;;;;;;;;;;;;;;-144.99;79.97;52582.63;5076217;28;19928;-73
2023/01/13 11:35:48;;;;;;;;;;;;;;;-144.99;80.75;52586.69;5077602;28;19928;-74
2023/01/13 11:38:17;;;;;;;;;;;;;;;-144.99;81.46;52572.44;5078828;28;19928;-74
2023/01/13 11:40:46;;;;;;;;;;;;;;;-144.99;81.98;52590.78;5077137;28;20558;-74
2023/01/13 11:43:17;;;;;;;;;;;;;;;-144.99;83.45;52592.81;5075176;28;19936;-73
2023/01/13 11:45:46;;;;;;;;;;;;;;;-144.99;86.63;52598.94;5075679;28;19978;-73
2023/01/13 11:48:15;;;;;;;;;;;;;;;-144.99;88.07;52590.78;5075720;28;19931;-75
2023/01/13 11:50:46;;;;;;;;;;;;;;;-144.99;88.33;52554.09;5093335;28;19912;-75
2023/01/13 11:53:21;;;;;;;;;;;;;;;-144.99;88.44;52584.66;5088300;28;19928;-74
2023/01/13 11:55:53;;;;;;;;;;;;;;;-144.99;88.30;52578.53;5074718;28;20256;-73
2023/01/13 11:58:26;;;;;;;;;;;;;;;-144.99;89.03;52568.34;5082628;28;19995;-73
2023/01/13 12:01:07;;;;;;;;;;;;;;;-144.99;89.84;52598.94;5071868;28;19924;-75
2023/01/13 12:03:36;;;;;;;;;;;;;;;-144.99;91.13;52592.81;5087695;28;19912;-75
2023/01/13 12:06:11;;;;;;;;;;;;;;;-144.99;92.07;52615.25;5086239;28;19924;-75
2023/01/13 12:08:46;;;;;;;;;;;;;;;-144.99;92.77;52619.31;5088074;28;19933;-76
2023/01/13 12:11:17;;;;;;;;;;;;;;;-144.99;94.06;52550.00;5083777;28;19928;-74
2023/01/13 12:13:48;;;;;;;;;;;;;;;-144.99;95.09;52607.09;5085720;28;19951;-74
2023/01/13 12:16:17;;;;;;;;;;;;;;;-144.99;97.19;52611.16;5087713;28;19951;-74
2023/01/13 12:18:55;;;;;;;;;;;;;;;-144.99;97.36;52562.25;5085690;28;20139;-76
2023/01/13 12:21:23;;;;;;;;;;;;;;;-144.99;98.66;52570.38;5093029;28;19926;-76
2023/01/13 12:24:01;;;;;;;;;;;;;;;-144.99;99.94;52594.84;5092508;28;19933;-77
2023/01/13 12:26:29;;;;;;;;;;;;;;;-144.99;100.00;52596.88;5087641;28;19929;-76
2023/01/13 12:28:57;;;;;;;;;;;;;;;-144.99;100.00;52547.97;5090188;28;19939;-76
2023/01/13 12:31:25;;;;;;;;;;;;;;;-144.99;100.00;52590.78;5093352;28;19928;-76
2023/01/13 12:33:58;;;;;;;;;;;;;;;-144.99;100.00;52566.31;5090612;28;19929;-76
2023/01/13 12:36:29;;;;;;;;;;;;;;;-144.99;100.00;52615.25;5088496;28;20028;-77
2023/01/13 12:38:58;;;;;;;;;;;;;;;-144.99;100.00;52578.53;5086336;28;19928;-77
2023/01/13 12:41:31;;;;;;;;;;;;;;;-144.99;100.00;52570.38;5086221;28;19990;-78
2023/01/13 12:46:51;;;;;;;;;;;;;;;-144.99;100.00;52633.59;5085202;28;19955;-80
2023/01/13 12:49:22;;;;;;;;;;;;;;;-144.99;100.00;52566.31;5070995;28;20456;-75
2023/01/13 12:52:12;;;;;;;;;;;;;;;-144.99;100.00;52592.81;5069399;28;19928;-76
2023/01/13 12:55:12;;;;;;;;;;;;;;;-144.99;100.00;52566.31;5068259;28;19958;-74
2023/01/13 12:57:54;;;;;;;;;;;;;;;-144.99;100.00;52611.16;4985363;28;20457;-75
2023/01/13 13:00:21;;;;;;;;;;;;;;;-144.99;100.00;52558.16;4986427;28;20009;-75
2023/01/13 13:03:18;;;;;;;;;;;;;;;-144.99;100.00;52566.31;5030482;28;20357;-76
2023/01/13 13:05:48;;;;;;;;;;;;;;;-144.99;100.00;52566.31;5006314;28;20086;-75
2023/01/13 13:08:18;;;;;;;;;;;;;;;-144.99;100.00;52574.47;5054460;28;19924;-74
2023/01/13 13:10:54;;;;;;;;;;;;;;;-144.99;100.00;52611.16;5068995;28;19924;-75
2023/01/13 13:13:38;;;;;;;;;;;;;;;-144.99;100.00;52584.66;5069325;28;19964;-75
2023/01/13 13:16:23;;;;;;;;;;;;;;;-144.99;100.00;52578.53;5068717;28;19928;-75
2023/01/13 13:18:51;;;;;;;;;;;;;;;-144.99;100.00;52590.78;5060688;28;19936;-74
2023/01/13 13:21:18;;;;;;;;;;;;;;;-144.99;99.69;52578.53;5068211;28;19978;-75